createdAt,value
2023-03-05T00:01:33.635Z,16.15
2023-03-05T00:04:01.821Z,16.52
2023-03-05T00:06:30.190Z,18.00
2023-03-05T00:08:58.449Z,17.67
2023-03-05T00:11:29.757Z,17.88
2023-03-05T00:13:57.686Z,16.52
2023-03-05T00:16:26.953Z,17.00
2023-03-05T00:18:55.422Z,17.30
2023-03-05T00:21:27.764Z,16.15
2023-03-05T00:26:23.868Z,16.50
2023-03-05T00:28:52.439Z,15.55
2023-03-05T00:31:22.101Z,16.80
2023-03-05T00:33:56.263Z,16.90
2023-03-05T00:36:24.605Z,17.33
2023-03-05T00:38:51.466Z,15.70
2023-03-05T00:41:18.172Z,17.08
2023-03-05T00:43:44.816Z,17.00
2023-03-05T00:46:11.596Z,16.25
2023-03-05T00:48:38.228Z,16.67
2023-03-05T00:51:05.127Z,17.13
2023-03-05T00:53:31.808Z,14.85
2023-03-05T00:55:58.851Z,15.73
2023-03-05T00:58:25.471Z,15.07
2023-03-05T01:00:52.025Z,15.35
2023-03-05T01:03:19.379Z,14.65
2023-03-05T01:05:46.078Z,14.30
2023-03-05T01:08:12.683Z,15.55
2023-03-05T01:10:39.335Z,14.93
2023-03-05T01:13:05.944Z,15.98
2023-03-05T01:15:32.650Z,15.30
2023-03-05T01:17:59.294Z,16.73
2023-03-05T01:20:25.894Z,15.32
2023-03-05T01:22:53.045Z,15.35
2023-03-05T01:25:19.738Z,17.52
2023-03-05T01:27:46.449Z,14.80
2023-03-05T01:30:14.771Z,15.57
2023-03-05T01:32:41.676Z,17.52
2023-03-05T01:35:11.069Z,15.32
2023-03-05T01:37:37.644Z,16.17
2023-03-05T01:40:05.622Z,15.35
2023-03-05T01:42:32.267Z,16.73
2023-03-05T01:45:10.290Z,16.38
2023-03-05T01:47:37.712Z,15.40
2023-03-05T01:50:07.942Z,14.98
2023-03-05T01:52:37.823Z,15.27
2023-03-05T01:55:17.472Z,15.73
2023-03-05T01:57:48.048Z,15.98
2023-03-05T02:00:22.464Z,16.13
2023-03-05T02:02:51.395Z,15.73
2023-03-05T02:05:29.513Z,16.17
2023-03-05T02:08:01.857Z,16.48
2023-03-05T02:13:04.149Z,15.70
2023-03-05T02:15:31.092Z,16.00
2023-03-05T02:17:57.739Z,16.30
2023-03-05T02:20:53.916Z,16.58
2023-03-05T02:23:22.681Z,15.90
2023-03-05T02:25:49.803Z,16.55
2023-03-05T02:28:46.027Z,15.32
2023-03-05T02:31:21.484Z,17.70
2023-03-05T02:33:48.722Z,17.65
2023-03-05T02:36:15.960Z,18.17
2023-03-05T02:38:43.336Z,17.92
2023-03-05T02:41:10.527Z,18.20
2023-03-05T02:43:37.408Z,18.05
2023-03-05T02:46:04.426Z,18.98
2023-03-05T02:48:31.637Z,17.17
2023-03-05T02:50:58.323Z,19.15
2023-03-05T02:53:26.393Z,18.58
2023-03-05T02:55:53.206Z,17.95
2023-03-05T02:58:19.814Z,18.63
2023-03-05T03:00:49.348Z,19.48
2023-03-05T03:03:16.192Z,21.23
2023-03-05T03:05:42.918Z,19.33
2023-03-05T03:08:10.438Z,19.95
2023-03-05T03:10:37.401Z,20.17
2023-03-05T03:13:04.099Z,18.90
2023-03-05T03:15:30.670Z,19.13
2023-03-05T03:17:57.298Z,19.05
2023-03-05T03:20:24.369Z,18.95
2023-03-05T03:22:51.109Z,20.15
2023-03-05T03:25:20.706Z,18.80
2023-03-05T03:27:47.335Z,19.60
2023-03-05T03:30:15.511Z,19.77
2023-03-05T03:32:42.480Z,19.95
2023-03-05T03:35:09.725Z,19.83
2023-03-05T03:37:36.404Z,19.65
2023-03-05T03:40:05.601Z,20.20
2023-03-05T03:42:32.815Z,20.05
2023-03-05T03:45:00.639Z,19.17
2023-03-05T03:47:27.248Z,18.95
2023-03-05T03:49:54.820Z,20.52
2023-03-05T03:52:23.012Z,19.52
2023-03-05T03:54:52.435Z,20.75
2023-03-05T03:57:19.425Z,21.10
2023-03-05T03:59:46.187Z,18.77
2023-03-05T04:02:12.958Z,19.90
2023-03-05T04:04:39.837Z,19.95
2023-03-05T04:07:06.481Z,20.70
2023-03-05T04:09:33.240Z,20.50
2023-03-05T04:11:59.854Z,21.58
2023-03-05T04:14:27.305Z,21.77
2023-03-05T04:16:53.898Z,20.42
2023-03-05T04:19:20.565Z,20.23
2023-03-05T04:21:47.209Z,21.17
2023-03-05T04:24:13.883Z,18.67
2023-03-05T04:26:40.475Z,18.42
2023-03-05T04:29:07.108Z,20.30
2023-03-05T04:31:33.750Z,19.65
2023-03-05T04:34:00.380Z,21.77
2023-03-05T04:36:26.985Z,18.65
2023-03-05T04:38:53.587Z,18.25
2023-03-05T04:41:20.238Z,20.02
2023-03-05T04:43:46.819Z,19.27
2023-03-05T04:46:13.495Z,19.35
2023-03-05T04:48:40.284Z,18.45
2023-03-05T04:51:06.888Z,20.08
2023-03-05T04:53:33.596Z,19.42
2023-03-05T04:56:01.691Z,18.73
2023-03-05T04:58:28.986Z,18.70
2023-03-05T05:01:01.224Z,18.60
2023-03-05T05:05:56.135Z,16.92
2023-03-05T05:08:23.503Z,18.63
2023-03-05T05:11:04.828Z,18.45
2023-03-05T05:13:32.424Z,18.83
2023-03-05T05:15:59.409Z,19.20
2023-03-05T05:18:27.262Z,19.23
2023-03-05T05:20:53.849Z,19.13
2023-03-05T05:23:20.424Z,16.48
2023-03-05T05:25:55.385Z,19.00
2023-03-05T05:28:21.959Z,17.15
2023-03-05T05:30:48.578Z,17.08
2023-03-05T05:33:15.312Z,17.70
2023-03-05T05:35:41.989Z,17.10
2023-03-05T05:38:08.660Z,17.85
2023-03-05T05:40:35.236Z,18.33
2023-03-05T05:43:01.815Z,17.25
2023-03-05T05:45:28.553Z,17.95
2023-03-05T05:47:55.432Z,17.08
2023-03-05T05:50:22.026Z,17.35
2023-03-05T05:52:48.647Z,16.67
2023-03-05T05:55:16.268Z,17.20
2023-03-05T05:57:42.931Z,16.90
2023-03-05T06:00:12.148Z,16.67
2023-03-05T06:02:43.127Z,16.40
2023-03-05T06:05:14.874Z,17.23
2023-03-05T06:07:41.554Z,14.20
2023-03-05T06:10:09.940Z,16.30
2023-03-05T06:12:36.658Z,16.60
2023-03-05T06:15:03.457Z,17.15
2023-03-05T06:17:31.035Z,14.90
2023-03-05T06:19:58.844Z,15.35
2023-03-05T06:22:25.572Z,17.30
2023-03-05T06:24:52.217Z,16.20
2023-03-05T06:27:18.893Z,16.95
2023-03-05T06:29:45.475Z,14.90
2023-03-05T06:32:12.160Z,17.20
2023-03-05T06:34:38.789Z,15.35
2023-03-05T06:37:05.444Z,16.13
2023-03-05T06:39:32.102Z,16.70
2023-03-05T06:41:58.777Z,15.95
2023-03-05T06:44:25.868Z,17.05
2023-03-05T06:46:52.584Z,14.73
2023-03-05T06:49:19.208Z,16.30
2023-03-05T06:51:45.831Z,15.32
2023-03-05T06:54:15.374Z,15.40
2023-03-05T06:56:44.550Z,15.73
2023-03-05T06:59:12.809Z,15.13
2023-03-05T07:01:39.421Z,16.10
2023-03-05T07:04:07.124Z,15.30
2023-03-05T07:06:36.186Z,16.60
2023-03-05T07:09:04.492Z,16.92
2023-03-05T07:11:31.738Z,17.88
2023-03-05T07:13:58.761Z,18.00
2023-03-05T07:16:28.010Z,16.20
2023-03-05T07:18:57.130Z,17.63
2023-03-05T07:21:27.644Z,16.88
2023-03-05T07:23:55.440Z,16.10
2023-03-05T07:26:22.911Z,15.70
2023-03-05T07:28:49.820Z,17.75
2023-03-05T07:31:22.326Z,17.52
2023-03-05T07:33:50.871Z,17.95
2023-03-05T07:36:17.954Z,18.40
2023-03-05T07:38:45.390Z,19.70
2023-03-05T07:41:19.997Z,17.90
2023-03-05T07:43:48.887Z,19.38
2023-03-05T07:46:17.814Z,19.50
2023-03-05T07:48:45.112Z,18.08
2023-03-05T07:51:15.901Z,19.80
2023-03-05T07:53:46.767Z,19.67
2023-03-05T07:56:13.818Z,17.80
2023-03-05T07:58:40.440Z,18.63
2023-03-05T08:01:14.416Z,17.80
2023-03-05T08:03:42.664Z,20.30
2023-03-05T08:06:11.570Z,17.23
2023-03-05T08:08:38.589Z,18.85
2023-03-05T08:11:06.764Z,18.10
2023-03-05T08:13:33.494Z,18.00
2023-03-05T08:16:04.058Z,19.05
2023-03-05T08:18:30.666Z,17.80
2023-03-05T08:20:58.088Z,17.90
2023-03-05T08:23:24.681Z,18.45
2023-03-05T08:25:51.258Z,18.10
2023-03-05T08:28:19.692Z,18.63
2023-03-05T08:30:49.119Z,21.23
2023-03-05T08:33:17.727Z,19.40
2023-03-05T08:35:45.427Z,18.80
2023-03-05T08:38:15.551Z,18.90
2023-03-05T08:40:43.304Z,18.38
2023-03-05T08:43:10.158Z,18.90
2023-03-05T08:45:39.294Z,18.55
2023-03-05T08:48:06.125Z,20.52
2023-03-05T08:50:32.698Z,17.75
2023-03-05T08:53:00.192Z,17.90
2023-03-05T08:55:26.786Z,18.52
2023-03-05T08:57:53.444Z,18.13
2023-03-05T09:00:20.343Z,19.80
2023-03-05T09:02:46.998Z,18.75
2023-03-05T09:05:15.674Z,19.42
2023-03-05T09:07:42.528Z,17.90
2023-03-05T09:10:11.588Z,16.60
2023-03-05T09:12:38.196Z,19.52
2023-03-05T09:15:08.248Z,16.27
2023-03-05T09:17:38.738Z,15.90
2023-03-05T09:20:06.648Z,17.73
2023-03-05T09:22:33.387Z,16.15
2023-03-05T09:24:59.935Z,18.10
2023-03-05T09:27:26.558Z,15.10
2023-03-05T09:29:53.313Z,14.88
2023-03-05T09:32:20.145Z,16.75
2023-03-05T09:34:46.839Z,14.23
2023-03-05T09:37:13.510Z,13.85
2023-03-05T09:39:40.307Z,12.73
2023-03-05T09:42:15.783Z,14.20
2023-03-05T09:44:51.482Z,13.55
2023-03-05T09:47:38.961Z,13.63
2023-03-05T09:50:23.622Z,13.85
2023-03-05T09:52:57.738Z,14.23
2023-03-05T09:55:29.937Z,15.32
2023-03-05T09:58:03.532Z,12.98
2023-03-05T10:00:38.526Z,12.13
2023-03-05T10:03:22.866Z,13.25
2023-03-05T10:06:09.755Z,13.60
2023-03-05T10:09:06.900Z,14.52
2023-03-05T10:11:50.441Z,13.88
2023-03-05T10:14:30.277Z,12.00
2023-03-05T10:17:24.161Z,13.38
2023-03-05T10:20:28.115Z,11.32
2023-03-05T10:23:06.743Z,13.35
2023-03-05T10:26:05.945Z,13.10
2023-03-05T10:29:06.781Z,11.25
2023-03-05T10:31:59.529Z,11.75
2023-03-05T10:34:43.026Z,11.27
2023-03-05T10:37:31.979Z,10.48
2023-03-05T10:40:14.185Z,10.93
2023-03-05T10:43:02.851Z,12.27
2023-03-05T10:45:37.099Z,10.98
2023-03-05T10:48:35.100Z,12.52
2023-03-05T10:51:21.724Z,12.35
2023-03-05T10:53:56.922Z,13.95
2023-03-05T10:56:29.960Z,11.95
2023-03-05T10:59:01.766Z,10.63
2023-03-05T11:01:36.636Z,11.07
2023-03-05T11:04:25.168Z,11.55
2023-03-05T11:06:57.630Z,11.40
2023-03-05T11:09:29.679Z,12.52
2023-03-05T11:12:16.872Z,14.15
2023-03-05T11:15:04.138Z,17.17
2023-03-05T11:17:38.633Z,12.57
2023-03-05T11:20:26.552Z,12.25
2023-03-05T11:23:29.888Z,11.80
2023-03-05T11:26:00.938Z,12.88
2023-03-05T11:28:37.303Z,12.38
2023-03-05T11:31:23.646Z,12.15
2023-03-05T11:34:04.229Z,13.95
2023-03-05T11:36:42.079Z,19.15
2023-03-05T11:39:14.919Z,11.80
2023-03-05T11:41:48.000Z,11.57
2023-03-05T11:44:21.110Z,12.07
2023-03-05T11:46:52.593Z,10.82
2023-03-05T11:49:23.254Z,11.77
2023-03-05T11:51:55.741Z,12.25
2023-03-05T11:54:30.051Z,9.98
2023-03-05T11:56:56.896Z,11.27
2023-03-05T11:59:29.571Z,10.60
2023-03-05T12:01:58.532Z,12.02
2023-03-05T12:04:25.826Z,11.98
2023-03-05T12:07:00.604Z,11.15
2023-03-05T12:09:42.340Z,10.30
2023-03-05T12:12:17.880Z,9.25
2023-03-05T12:14:58.240Z,10.25
2023-03-05T12:17:37.987Z,10.40
2023-03-05T12:20:35.545Z,10.73
2023-03-05T12:23:02.255Z,10.13
2023-03-05T12:25:44.639Z,10.43
2023-03-05T12:28:34.302Z,9.77
2023-03-05T12:31:02.845Z,9.35
2023-03-05T12:33:33.033Z,8.98
2023-03-05T12:36:21.147Z,10.55
2023-03-05T12:38:57.507Z,9.80
2023-03-05T12:41:25.392Z,10.15
2023-03-05T12:44:05.682Z,11.80
2023-03-05T12:46:43.720Z,11.05
2023-03-05T12:49:19.234Z,9.95
2023-03-05T12:51:56.870Z,9.85
2023-03-05T12:54:42.050Z,9.05
2023-03-05T12:57:19.140Z,8.85
2023-03-05T12:59:59.709Z,10.77
2023-03-05T13:02:28.601Z,9.13
2023-03-05T13:05:00.535Z,8.35
2023-03-05T13:07:27.204Z,9.65
2023-03-05T13:09:57.339Z,10.90
2023-03-05T13:12:26.187Z,11.57
2023-03-05T13:15:08.911Z,9.77
2023-03-05T13:17:44.525Z,10.45
2023-03-05T13:20:38.840Z,9.85
2023-03-05T13:23:24.786Z,11.13
2023-03-05T13:26:10.385Z,10.57
2023-03-05T13:28:39.445Z,11.25
2023-03-05T13:31:18.619Z,10.43
2023-03-05T13:33:54.551Z,13.63
2023-03-05T13:36:24.150Z,10.75
2023-03-05T13:38:51.674Z,12.23
2023-03-05T13:41:28.970Z,12.70
2023-03-05T13:44:00.955Z,12.18
2023-03-05T13:46:34.648Z,12.13
2023-03-05T13:49:36.664Z,11.77
2023-03-05T13:52:03.379Z,11.13
2023-03-05T13:54:30.667Z,11.13
2023-03-05T13:57:00.630Z,11.02
2023-03-05T13:59:35.367Z,11.85
2023-03-05T14:02:15.750Z,10.05
2023-03-05T14:04:45.000Z,11.77
2023-03-05T14:07:20.204Z,12.07
2023-03-05T14:09:52.125Z,11.13
2023-03-05T14:12:35.628Z,11.05
2023-03-05T14:15:02.501Z,10.85
2023-03-05T14:17:38.836Z,10.02
2023-03-05T14:20:14.792Z,11.15
2023-03-05T14:22:46.480Z,12.10
2023-03-05T14:25:42.411Z,11.43
2023-03-05T14:28:17.870Z,12.63
2023-03-05T14:31:02.662Z,12.32
2023-03-05T14:33:32.748Z,12.40
2023-03-05T14:36:01.576Z,12.18
2023-03-05T14:38:31.792Z,11.50
2023-03-05T14:40:58.478Z,11.98
2023-03-05T14:43:25.124Z,12.20
2023-03-05T14:45:51.858Z,12.05
2023-03-05T14:48:21.284Z,11.73
2023-03-05T14:50:57.008Z,18.52
2023-03-05T14:53:30.077Z,11.23
2023-03-05T14:55:57.028Z,12.43
2023-03-05T14:58:32.310Z,12.27
2023-03-05T15:00:59.830Z,11.95
2023-03-05T15:03:27.991Z,12.45
2023-03-05T15:06:00.710Z,11.88
2023-03-05T15:08:31.048Z,11.45
2023-03-05T15:11:00.063Z,14.93
2023-03-05T15:13:27.220Z,10.65
2023-03-05T15:15:54.184Z,10.05
2023-03-05T15:18:22.521Z,10.70
2023-03-05T15:20:52.021Z,10.95
2023-03-05T15:23:19.381Z,10.77
2023-03-05T15:25:46.207Z,9.98
2023-03-05T15:28:12.868Z,13.13
2023-03-05T15:30:42.408Z,10.40
2023-03-05T15:33:12.059Z,10.18
2023-03-05T15:35:38.775Z,9.75
2023-03-05T15:38:05.587Z,10.38
2023-03-05T15:40:32.465Z,10.20
2023-03-05T15:43:00.371Z,10.65
2023-03-05T15:45:27.991Z,10.68
2023-03-05T15:47:54.730Z,11.32
2023-03-05T15:50:22.167Z,11.25
2023-03-05T15:52:49.757Z,11.77
2023-03-05T15:55:18.378Z,11.43
2023-03-05T15:57:48.052Z,11.88
2023-03-05T16:00:17.716Z,12.00
2023-03-05T16:02:44.337Z,10.13
2023-03-05T16:05:11.398Z,10.43
2023-03-05T16:07:42.013Z,11.77
2023-03-05T16:10:13.128Z,11.77
2023-03-05T16:12:42.966Z,11.13
2023-03-05T16:15:17.143Z,11.10
2023-03-05T16:17:45.487Z,12.07
2023-03-05T16:20:12.917Z,10.77
2023-03-05T16:22:40.072Z,10.25
2023-03-05T16:25:07.006Z,11.45
2023-03-05T16:27:34.074Z,10.32
2023-03-05T16:30:00.778Z,11.48
2023-03-05T16:32:27.435Z,10.70
2023-03-05T16:34:54.021Z,9.40
2023-03-05T16:37:23.247Z,10.68
2023-03-05T16:39:50.157Z,11.07
2023-03-05T16:42:16.994Z,11.65
2023-03-05T16:44:44.755Z,10.85
2023-03-05T16:47:12.334Z,11.38
2023-03-05T16:49:39.918Z,10.85
2023-03-05T16:52:18.421Z,10.18
2023-03-05T16:54:46.376Z,15.15
2023-03-05T16:57:13.049Z,11.20
2023-03-05T16:59:44.368Z,10.80
2023-03-05T17:02:13.270Z,12.15
2023-03-05T17:04:40.161Z,11.20
2023-03-05T17:07:07.218Z,12.50
2023-03-05T17:09:33.867Z,10.05
2023-03-05T17:12:00.825Z,10.18
2023-03-05T17:14:27.457Z,11.13
2023-03-05T17:16:57.116Z,9.98
2023-03-05T17:19:23.716Z,9.93
2023-03-05T17:21:52.186Z,10.82
2023-03-05T17:24:22.798Z,19.35
2023-03-05T17:26:50.153Z,12.18
2023-03-05T17:29:18.989Z,10.20
2023-03-05T17:31:46.582Z,10.10
2023-03-05T17:34:13.322Z,10.15
2023-03-05T17:36:40.100Z,10.40
2023-03-05T17:39:06.796Z,9.93
2023-03-05T17:41:33.395Z,10.15
2023-03-05T17:44:00.121Z,9.70
2023-03-05T17:46:28.924Z,9.60
2023-03-05T17:48:55.686Z,12.88
2023-03-05T17:51:22.405Z,12.02
2023-03-05T17:53:49.082Z,10.73
2023-03-05T17:56:22.204Z,10.15
2023-03-05T17:58:49.902Z,9.98
2023-03-05T18:01:28.387Z,10.95
2023-03-05T18:03:55.730Z,8.75
2023-03-05T18:06:22.938Z,10.50
2023-03-05T18:08:52.476Z,10.50
2023-03-05T18:11:19.177Z,10.70
2023-03-05T18:13:48.291Z,10.48
2023-03-05T18:16:18.494Z,10.68
2023-03-05T18:18:45.423Z,9.93
2023-03-05T18:21:12.409Z,8.93
2023-03-05T18:23:41.433Z,10.70
2023-03-05T18:26:14.731Z,10.50
2023-03-05T18:28:41.666Z,10.52
2023-03-05T18:31:08.803Z,10.98
2023-03-05T18:33:35.753Z,10.60
2023-03-05T18:36:02.816Z,10.50
2023-03-05T18:38:31.920Z,11.23
2023-03-05T18:41:03.573Z,10.73
2023-03-05T18:43:33.124Z,11.18
2023-03-05T18:46:00.061Z,10.88
2023-03-05T18:48:26.837Z,10.93
2023-03-05T18:50:54.362Z,10.30
2023-03-05T18:53:22.431Z,9.98
2023-03-05T18:55:51.333Z,10.63
2023-03-05T18:58:18.452Z,10.10
2023-03-05T19:00:47.118Z,10.20
2023-03-05T19:03:15.063Z,10.40
2023-03-05T19:05:42.598Z,10.50
2023-03-05T19:08:09.994Z,9.95
2023-03-05T19:10:36.956Z,10.02
2023-03-05T19:13:49.056Z,10.20
2023-03-05T19:16:19.759Z,12.80
2023-03-05T19:19:24.730Z,10.93
2023-03-05T19:21:58.706Z,10.55
2023-03-05T19:24:30.595Z,10.43
2023-03-05T19:27:01.095Z,10.23
2023-03-05T19:29:33.200Z,10.43
2023-03-05T19:31:59.960Z,10.77
2023-03-05T19:34:26.690Z,11.15
2023-03-05T19:36:53.401Z,10.18
2023-03-05T19:39:20.047Z,10.98
2023-03-05T19:41:46.686Z,10.48
2023-03-05T19:44:13.778Z,10.65
2023-03-05T19:46:41.974Z,8.82
2023-03-05T19:49:08.970Z,11.27
2023-03-05T19:51:35.928Z,10.35
2023-03-05T19:54:04.648Z,9.60
2023-03-05T19:56:31.624Z,10.07
2023-03-05T19:58:58.268Z,12.05
2023-03-05T20:01:27.228Z,9.93
2023-03-05T20:03:56.432Z,9.82
2023-03-05T20:06:24.323Z,10.52
2023-03-05T20:08:51.235Z,11.20
2023-03-05T20:11:18.996Z,11.32
2023-03-05T20:13:46.398Z,11.60
2023-03-05T20:16:19.014Z,10.85
2023-03-05T20:18:46.529Z,10.35
2023-03-05T20:21:21.311Z,10.25
2023-03-05T20:23:48.063Z,10.52
2023-03-05T20:26:14.779Z,10.13
2023-03-05T20:28:41.529Z,10.43
2023-03-05T20:31:08.688Z,10.07
2023-03-05T20:33:35.455Z,10.00
2023-03-05T20:36:02.165Z,10.05
2023-03-05T20:38:30.992Z,10.93
2023-03-05T20:41:04.863Z,10.50
2023-03-05T20:43:35.566Z,9.95
2023-03-05T20:46:02.951Z,9.45
2023-03-05T20:48:32.744Z,9.05
2023-03-05T20:51:10.640Z,10.95
2023-03-05T20:53:37.314Z,10.43
2023-03-05T20:56:04.065Z,9.27
2023-03-05T20:58:30.709Z,11.10
2023-03-05T21:00:57.499Z,10.55
2023-03-05T21:03:25.619Z,11.20
2023-03-05T21:05:55.838Z,9.82
2023-03-05T21:08:26.157Z,11.00
2023-03-05T21:10:52.886Z,11.20
2023-03-05T21:13:19.684Z,9.60
2023-03-05T21:15:46.628Z,10.95
2023-03-05T21:18:13.380Z,10.20
2023-03-05T21:20:41.212Z,10.48
2023-03-05T21:23:08.065Z,10.27
2023-03-05T21:25:36.658Z,9.48
2023-03-05T21:28:09.776Z,11.98
2023-03-05T21:30:39.664Z,10.68
2023-03-05T21:33:10.051Z,11.05
2023-03-05T21:35:38.026Z,10.27
2023-03-05T21:38:06.637Z,9.57
2023-03-05T21:40:35.863Z,9.82
2023-03-05T21:43:03.749Z,12.70
2023-03-05T21:45:30.844Z,11.00
2023-03-05T21:47:58.876Z,9.75
2023-03-05T21:50:26.345Z,9.65
2023-03-05T21:52:53.291Z,9.27
2023-03-05T21:55:29.289Z,8.85
2023-03-05T21:57:56.134Z,9.85
2023-03-05T22:00:23.250Z,9.18
2023-03-05T22:02:50.012Z,9.60
2023-03-05T22:05:17.543Z,9.75
2023-03-05T22:07:44.601Z,9.38
2023-03-05T22:10:14.860Z,9.48
2023-03-05T22:13:09.418Z,10.50
2023-03-05T22:15:46.583Z,9.52
2023-03-05T22:18:15.901Z,10.18
2023-03-05T22:20:42.979Z,10.75
2023-03-05T22:23:10.513Z,9.98
2023-03-05T22:25:37.921Z,10.18
2023-03-05T22:28:05.753Z,11.20
2023-03-05T22:30:33.060Z,9.77
2023-03-05T22:33:01.225Z,11.25
2023-03-05T22:35:28.342Z,11.15
2023-03-05T22:37:55.380Z,11.90
2023-03-05T22:40:22.763Z,11.32
2023-03-05T22:42:49.683Z,11.55
2023-03-05T22:45:18.003Z,11.45
2023-03-05T22:47:51.697Z,10.13
2023-03-05T22:50:18.529Z,10.90
2023-03-05T22:52:45.278Z,10.50
2023-03-05T22:55:14.067Z,10.05
2023-03-05T22:57:41.499Z,10.55
2023-03-05T23:00:14.197Z,11.77
2023-03-05T23:02:41.833Z,11.35
2023-03-05T23:05:09.780Z,10.52
2023-03-05T23:07:38.540Z,10.98
2023-03-05T23:10:17.671Z,10.43
2023-03-05T23:12:49.400Z,12.50
2023-03-05T23:15:20.697Z,11.23
2023-03-05T23:17:47.508Z,11.55
2023-03-05T23:20:16.957Z,10.90
2023-03-05T23:22:45.160Z,10.60
2023-03-05T23:25:14.109Z,10.32
2023-03-05T23:27:41.200Z,12.57
2023-03-05T23:30:19.608Z,11.48
2023-03-05T23:33:10.529Z,10.55
2023-03-05T23:35:39.955Z,10.98
2023-03-05T23:38:11.796Z,11.32
2023-03-05T23:40:49.727Z,11.80
2023-03-05T23:43:18.092Z,11.27
2023-03-05T23:45:48.178Z,11.32
2023-03-05T23:48:16.681Z,10.90
2023-03-05T23:50:46.321Z,12.38
2023-03-05T23:53:19.655Z,11.48
2023-03-05T23:55:47.117Z,12.35
2023-03-05T23:58:14.428Z,10.30
